createdAt,value
2023-04-02T00:00:22.941Z,67.73
2023-04-02T00:05:52.837Z,69.38
2023-04-02T00:10:59.456Z,68.30
2023-04-02T00:16:28.958Z,69.59
2023-04-02T00:21:35.374Z,68.60
2023-04-02T00:26:44.999Z,68.59
2023-04-02T00:31:51.994Z,68.76
2023-04-02T00:36:58.058Z,69.03
2023-04-02T00:42:06.950Z,68.49
2023-04-02T00:47:21.747Z,69.46
2023-04-02T00:52:27.991Z,63.11
2023-04-02T00:57:31.129Z,63.76
2023-04-02T01:05:17.672Z,64.17
2023-04-02T01:10:49.579Z,59.08
2023-04-02T01:16:19.430Z,55.69
2023-04-02T01:21:42.661Z,53.83
2023-04-02T01:27:02.908Z,52.70
2023-04-02T01:32:19.055Z,53.51
2023-04-02T01:37:40.157Z,50.65
2023-04-02T01:43:08.480Z,47.73
2023-04-02T01:48:17.753Z,49.54
2023-04-02T01:53:22.350Z,50.60
2023-04-02T01:58:28.223Z,50.05
2023-04-02T02:03:31.925Z,50.27
2023-04-02T02:08:40.044Z,49.30
2023-04-02T02:13:48.232Z,47.04
2023-04-02T02:18:53.846Z,48.91
2023-04-02T02:23:57.658Z,49.00
2023-04-02T02:29:04.478Z,48.36
2023-04-02T02:34:23.378Z,47.70
2023-04-02T02:39:34.717Z,46.78
2023-04-02T02:44:49.783Z,45.79
2023-04-02T02:50:00.340Z,47.19
2023-04-02T02:55:39.000Z,44.81
2023-04-02T03:00:58.864Z,47.36
2023-04-02T03:06:23.496Z,47.76
2023-04-02T03:11:49.207Z,45.74
2023-04-02T03:17:03.599Z,46.77
2023-04-02T03:22:36.038Z,46.17
2023-04-02T03:27:48.067Z,47.16
2023-04-02T03:32:55.190Z,47.05
2023-04-02T03:38:16.711Z,46.86
2023-04-02T03:43:31.552Z,46.32
2023-04-02T03:48:55.732Z,45.65
2023-04-02T03:54:15.523Z,46.01
2023-04-02T03:59:29.944Z,45.56
2023-04-02T04:04:41.776Z,46.20
2023-04-02T04:09:53.430Z,45.84
2023-04-02T04:15:06.574Z,46.03
2023-04-02T04:35:03.184Z,46.16
2023-04-02T04:40:32.346Z,46.31
2023-04-02T04:46:12.691Z,45.74
2023-04-02T04:52:01.016Z,46.04
2023-04-02T04:57:06.756Z,46.63
2023-04-02T05:16:14.765Z,47.07
2023-04-02T05:22:03.552Z,46.46
2023-04-02T05:28:03.406Z,46.47
2023-04-02T05:33:29.002Z,47.31
2023-04-02T05:38:48.922Z,47.84
2023-04-02T05:44:17.897Z,47.44
2023-04-02T06:01:18.223Z,47.79
2023-04-02T06:06:56.533Z,47.08
2023-04-02T06:12:28.011Z,47.02
2023-04-02T06:17:56.111Z,47.01
2023-04-02T06:23:12.598Z,47.65
2023-04-02T06:28:35.338Z,47.17
2023-04-02T06:34:03.743Z,47.08
2023-04-02T06:39:25.140Z,46.88
2023-04-02T06:44:35.844Z,47.03
2023-04-02T06:50:48.648Z,47.01
2023-04-02T06:56:30.210Z,47.44
2023-04-02T07:01:37.817Z,47.75
2023-04-02T07:06:42.346Z,48.38
2023-04-02T07:11:50.542Z,47.26
2023-04-02T07:17:06.423Z,45.86
2023-04-02T07:22:25.441Z,44.82
2023-04-02T07:27:37.825Z,44.51
2023-04-02T07:32:53.561Z,42.69
2023-04-02T07:37:58.286Z,42.79
2023-04-02T07:43:06.518Z,42.42
2023-04-02T07:48:15.267Z,41.42
2023-04-02T07:53:50.561Z,40.63
2023-04-02T07:58:55.834Z,41.54
2023-04-02T08:04:04.304Z,40.63
2023-04-02T08:09:08.100Z,40.54
2023-04-02T08:14:12.196Z,40.15
2023-04-02T08:19:14.728Z,40.22
2023-04-02T08:24:25.193Z,38.21
2023-04-02T08:29:33.440Z,40.12
2023-04-02T08:34:45.019Z,38.43
2023-04-02T08:39:51.277Z,39.69
2023-04-02T08:50:37.055Z,38.93
2023-04-02T08:56:18.893Z,36.42
2023-04-02T09:01:47.689Z,37.39
2023-04-02T09:07:14.631Z,37.30
2023-04-02T09:12:32.085Z,36.53
2023-04-02T09:17:50.561Z,36.11
2023-04-02T09:23:00.467Z,35.39
2023-04-02T09:28:09.730Z,34.64
2023-04-02T09:33:20.120Z,34.23
2023-04-02T09:38:36.623Z,32.50
2023-04-02T09:43:52.476Z,32.88
2023-04-02T09:49:02.671Z,31.83
2023-04-02T09:54:18.011Z,32.62
2023-04-02T09:59:24.949Z,33.80
2023-04-02T10:04:45.425Z,29.33
2023-04-02T10:09:58.796Z,30.56
2023-04-02T10:15:03.324Z,31.98
2023-04-02T10:20:28.480Z,28.41
2023-04-02T10:25:43.695Z,28.67
2023-04-02T10:31:02.627Z,29.50
2023-04-02T10:36:33.291Z,29.80
2023-04-02T10:41:59.807Z,27.72
2023-04-02T10:47:27.411Z,27.24
2023-04-02T10:52:34.380Z,28.56
2023-04-02T10:57:47.736Z,27.16
2023-04-02T11:03:14.648Z,27.36
2023-04-02T11:08:19.203Z,29.31
2023-04-02T11:13:35.682Z,26.87
2023-04-02T11:18:38.637Z,29.02
2023-04-02T11:24:04.316Z,25.79
2023-04-02T11:29:12.347Z,27.73
2023-04-02T11:34:37.085Z,27.54
2023-04-02T11:39:55.082Z,26.55
2023-04-02T11:45:29.017Z,27.02
2023-04-02T11:50:44.460Z,26.42
2023-04-02T11:56:24.526Z,26.77
2023-04-02T12:01:30.241Z,28.66
2023-04-02T12:07:11.411Z,26.41
2023-04-02T12:12:41.726Z,26.30
2023-04-02T12:17:45.050Z,27.98
2023-04-02T12:22:51.476Z,27.08
2023-04-02T12:28:17.991Z,30.21
2023-04-02T12:33:19.877Z,30.45
2023-04-02T12:38:24.777Z,32.33
2023-04-02T12:43:32.478Z,33.67
2023-04-02T12:48:39.379Z,33.89
2023-04-02T12:53:42.088Z,34.45
2023-04-02T12:58:44.415Z,34.38
2023-04-02T13:04:10.720Z,34.73
2023-04-02T13:09:44.926Z,34.22
2023-04-02T13:14:52.973Z,34.99
2023-04-02T13:19:55.131Z,35.07
2023-04-02T13:24:57.347Z,35.31
2023-04-02T13:30:12.023Z,34.82
2023-04-02T13:35:21.302Z,35.01
2023-04-02T13:40:23.508Z,37.13
2023-04-02T13:45:40.942Z,38.86
2023-04-02T13:50:43.111Z,39.61
2023-04-02T13:55:45.309Z,39.47
2023-04-02T14:00:48.126Z,40.56
2023-04-02T14:12:10.211Z,43.23
2023-04-02T14:17:58.235Z,44.14
2023-04-02T14:23:28.950Z,43.79
2023-04-02T14:29:12.476Z,42.80
2023-04-02T14:34:23.207Z,43.25
2023-04-02T14:39:49.890Z,44.39
2023-04-02T14:45:01.954Z,44.68
2023-04-02T14:50:29.700Z,45.23
2023-04-02T14:55:44.210Z,42.74
2023-04-02T15:00:57.480Z,44.27
2023-04-02T15:06:03.496Z,45.65
2023-04-02T15:11:34.263Z,48.09
2023-04-02T15:16:36.646Z,46.95
2023-04-02T15:21:57.689Z,48.75
2023-04-02T15:27:18.252Z,49.35
2023-04-02T15:32:42.769Z,49.56
2023-04-02T15:38:27.602Z,49.41
2023-04-02T15:43:32.409Z,49.73
2023-04-02T15:49:16.435Z,51.21
2023-04-02T15:54:36.787Z,52.80
2023-04-02T16:00:07.372Z,55.59
2023-04-02T16:05:31.916Z,56.25
2023-04-02T16:10:42.615Z,56.69
2023-04-02T16:15:58.715Z,56.55
2023-04-02T16:21:04.109Z,57.98
2023-04-02T16:26:14.904Z,57.96
2023-04-02T16:31:27.411Z,57.48
2023-04-02T16:37:08.221Z,58.08
2023-04-02T16:42:53.249Z,58.25
2023-04-02T16:48:07.418Z,57.01
2023-04-02T16:53:19.427Z,56.03
2023-04-02T16:58:24.159Z,55.51
2023-04-02T17:03:38.177Z,56.35
2023-04-02T17:08:44.401Z,55.06
2023-04-02T17:14:18.409Z,54.95
2023-04-02T17:19:31.602Z,54.55
2023-04-02T17:24:42.058Z,53.92
2023-04-02T17:35:43.256Z,53.07
2023-04-02T17:41:23.938Z,52.86
2023-04-02T17:46:45.074Z,54.21
2023-04-02T17:52:01.039Z,54.02
2023-04-02T17:57:19.416Z,55.27
2023-04-02T18:02:43.932Z,56.83
2023-04-02T18:07:55.835Z,58.30
2023-04-02T18:13:02.289Z,59.90
2023-04-02T18:18:23.923Z,57.96
2023-04-02T18:23:37.922Z,60.21
2023-04-02T18:28:46.448Z,60.40
2023-04-02T18:34:11.022Z,62.14
2023-04-02T18:39:57.440Z,63.40
2023-04-02T18:45:14.046Z,63.15
2023-04-02T18:50:39.881Z,64.38
2023-04-02T18:56:24.882Z,65.10
2023-04-02T19:01:47.908Z,66.19
2023-04-02T19:07:09.047Z,65.81
2023-04-02T19:12:27.094Z,65.96
2023-04-02T19:17:46.214Z,64.46
2023-04-02T19:22:54.225Z,61.86
2023-04-02T19:28:11.706Z,60.60
2023-04-02T19:33:37.834Z,59.81
2023-04-02T19:39:03.322Z,59.54
2023-04-02T19:44:11.735Z,58.61
2023-04-02T19:49:17.051Z,57.37
2023-04-02T19:54:19.368Z,57.36
2023-04-02T19:59:22.426Z,57.01
2023-04-02T20:04:25.032Z,56.67
2023-04-02T20:09:27.033Z,55.97
2023-04-02T20:14:29.226Z,55.51
2023-04-02T20:19:32.262Z,54.63
2023-04-02T20:24:34.543Z,55.21
2023-04-02T20:29:36.635Z,55.21
2023-04-02T20:34:39.071Z,55.67
2023-04-02T20:39:41.468Z,55.53
2023-04-02T20:44:43.604Z,55.37
2023-04-02T20:50:10.009Z,55.36
2023-04-02T20:55:20.319Z,55.45
2023-04-02T21:00:25.860Z,55.22
2023-04-02T21:05:32.778Z,55.31
2023-04-02T21:10:40.436Z,55.08
2023-04-02T21:15:45.831Z,54.58
2023-04-02T21:21:15.044Z,53.58
2023-04-02T21:26:22.888Z,53.47
2023-04-02T21:31:31.168Z,52.88
2023-04-02T21:36:36.717Z,52.77
2023-04-02T21:41:41.280Z,52.04
2023-04-02T21:46:44.394Z,52.15
2023-04-02T21:51:47.296Z,52.07
2023-04-02T21:56:49.770Z,51.63
2023-04-02T22:01:52.596Z,51.43
2023-04-02T22:06:54.787Z,52.52
2023-04-02T22:12:02.400Z,53.00
2023-04-02T22:17:04.611Z,52.66
2023-04-02T22:22:06.862Z,52.81
2023-04-02T22:27:08.858Z,52.34
2023-04-02T22:32:11.036Z,52.24
2023-04-02T22:37:14.071Z,52.68
2023-04-02T22:42:16.756Z,52.33
2023-04-02T22:47:18.982Z,52.40
2023-04-02T22:52:24.210Z,52.11
2023-04-02T22:57:26.370Z,52.11
2023-04-02T23:02:28.226Z,51.65
2023-04-02T23:07:35.057Z,51.94
2023-04-02T23:12:44.884Z,51.90
2023-04-02T23:17:50.810Z,51.99
2023-04-02T23:22:53.101Z,52.22
2023-04-02T23:27:55.752Z,52.23
2023-04-02T23:33:08.263Z,51.92
2023-04-02T23:38:20.152Z,51.68
2023-04-02T23:43:44.666Z,51.79
2023-04-02T23:48:53.233Z,51.41
2023-04-02T23:59:46.191Z,51.55
